createdAt,value
2023-05-02T00:04:19.525Z,99042.14
2023-05-02T00:09:23.559Z,99037.61
2023-05-02T00:14:28.303Z,99033.66
2023-05-02T00:19:31.551Z,99028.38
2023-05-02T00:24:34.787Z,99030.77
2023-05-02T00:29:38.232Z,99031.91
2023-05-02T00:34:41.759Z,99031.62
2023-05-02T00:40:08.398Z,99034.48
2023-05-02T00:45:12.728Z,99040.95
2023-05-02T00:50:18.104Z,99041.84
2023-05-02T00:55:21.313Z,99040.81
2023-05-02T01:00:31.646Z,99042.66
2023-05-02T01:05:50.445Z,99041.62
2023-05-02T01:11:13.312Z,99041.06
2023-05-02T01:19:58.660Z,99043.45
2023-05-02T01:25:21.190Z,99043.98
2023-05-02T01:30:28.448Z,99046.19
2023-05-02T01:35:36.003Z,99042.60
2023-05-02T01:40:40.700Z,99035.95
2023-05-02T01:45:45.994Z,99035.71
2023-05-02T01:50:50.747Z,99030.25
2023-05-02T01:55:55.854Z,99034.56
2023-05-02T02:01:01.832Z,99038.68
2023-05-02T02:06:06.896Z,99041.91
2023-05-02T02:11:13.637Z,99044.69
2023-05-02T02:16:24.947Z,99042.93
2023-05-02T02:21:33.062Z,99042.29
2023-05-02T02:26:37.852Z,99054.11
2023-05-02T02:31:41.031Z,99062.77
2023-05-02T02:36:51.406Z,99061.47
2023-05-02T02:42:11.384Z,99057.86
2023-05-02T02:47:42.945Z,99056.79
2023-05-02T02:52:59.586Z,99057.75
2023-05-02T02:58:17.830Z,99066.22
2023-05-02T03:03:29.225Z,99066.34
2023-05-02T03:08:50.658Z,99067.77
2023-05-02T03:13:54.376Z,99074.81
2023-05-02T03:18:58.615Z,99072.05
2023-05-02T03:24:04.324Z,99065.45
2023-05-02T03:29:08.398Z,99069.64
2023-05-02T03:34:13.492Z,99082.84
2023-05-02T03:39:17.613Z,99081.36
2023-05-02T03:44:21.106Z,99085.13
2023-05-02T03:49:24.329Z,99085.95
2023-05-02T03:54:28.137Z,99085.64
2023-05-02T03:59:35.651Z,99086.09
2023-05-02T04:04:44.064Z,99082.98
2023-05-02T04:09:50.413Z,99088.54
2023-05-02T04:14:53.894Z,99088.97
2023-05-02T04:20:03.152Z,99091.55
2023-05-02T04:25:09.828Z,99087.83
2023-05-02T04:30:16.111Z,99085.77
2023-05-02T04:35:23.213Z,99083.58
2023-05-02T04:40:26.576Z,99080.84
2023-05-02T04:45:37.386Z,99076.24
2023-05-02T04:50:46.754Z,99075.14
2023-05-02T04:55:50.325Z,99079.42
2023-05-02T05:00:55.008Z,99083.02
2023-05-02T05:05:58.085Z,99081.27
2023-05-02T05:11:02.419Z,99075.52
2023-05-02T05:16:06.848Z,99073.68
2023-05-02T05:21:11.538Z,99088.04
2023-05-02T05:26:17.216Z,99084.89
2023-05-02T05:31:25.107Z,99082.10
2023-05-02T05:36:31.678Z,99077.45
2023-05-02T05:41:36.064Z,99076.75
2023-05-02T05:46:42.655Z,99078.42
2023-05-02T05:51:47.995Z,99076.10
2023-05-02T05:56:53.058Z,99073.39
2023-05-02T06:01:57.804Z,99070.77
2023-05-02T06:07:01.926Z,99070.23
2023-05-02T06:12:06.362Z,99075.20
2023-05-02T06:17:10.492Z,99072.55
2023-05-02T06:22:14.300Z,99075.45
2023-05-02T06:27:17.507Z,99074.45
2023-05-02T06:32:21.999Z,99077.71
2023-05-02T06:37:25.151Z,99075.40
2023-05-02T06:42:28.380Z,99074.17
2023-05-02T06:47:31.920Z,99075.98
2023-05-02T06:52:35.708Z,99076.05
2023-05-02T06:57:38.872Z,99082.39
2023-05-02T07:02:42.285Z,99084.16
2023-05-02T07:07:45.963Z,99080.42
2023-05-02T07:12:49.175Z,99085.15
2023-05-02T07:17:53.621Z,99084.45
2023-05-02T07:22:57.102Z,99087.86
2023-05-02T07:28:00.322Z,99082.52
2023-05-02T07:33:03.574Z,99082.65
2023-05-02T07:38:07.098Z,99087.77
2023-05-02T07:43:11.277Z,99090.13
2023-05-02T07:48:14.821Z,99089.30
2023-05-02T07:53:18.267Z,99090.66
2023-05-02T07:58:21.411Z,99094.46
2023-05-02T08:03:24.759Z,99090.25
2023-05-02T08:08:28.443Z,99093.53
2023-05-02T08:13:31.660Z,99094.70
2023-05-02T08:18:34.836Z,99101.16
2023-05-02T08:23:38.077Z,99111.14
2023-05-02T08:28:42.499Z,99116.18
2023-05-02T08:33:48.519Z,99118.09
2023-05-02T08:38:52.056Z,99112.31
2023-05-02T08:43:56.734Z,99111.52
2023-05-02T08:49:01.915Z,99111.24
2023-05-02T08:54:10.003Z,99112.46
2023-05-02T08:59:13.128Z,99111.17
2023-05-02T09:04:18.574Z,99114.54
2023-05-02T09:09:21.688Z,99112.93
2023-05-02T09:14:24.900Z,99110.72
2023-05-02T09:19:28.768Z,99111.54
2023-05-02T09:24:32.841Z,99112.36
2023-05-02T09:29:36.537Z,99115.39
2023-05-02T09:34:42.380Z,99121.23
2023-05-02T09:40:06.735Z,99119.17
2023-05-02T09:45:20.856Z,99122.81
2023-05-02T09:50:38.097Z,99125.02
2023-05-02T09:55:43.711Z,99128.58
2023-05-02T10:00:47.034Z,99125.30
2023-05-02T10:05:51.086Z,99126.90
2023-05-02T10:10:56.782Z,99124.94
2023-05-02T10:16:05.311Z,99120.75
2023-05-02T10:25:19.652Z,99110.83
2023-05-02T10:30:24.390Z,99114.80
2023-05-02T10:35:31.858Z,99110.19
2023-05-02T10:40:42.763Z,99107.29
2023-05-02T10:45:45.995Z,99100.02
2023-05-02T11:25:31.795Z,99079.61
2023-05-02T11:30:37.706Z,99073.89
2023-05-02T11:35:43.664Z,99071.58
2023-05-02T11:40:55.182Z,99071.02
2023-05-02T11:46:00.470Z,99077.79
2023-05-02T11:51:07.514Z,99077.13
2023-05-02T11:56:10.952Z,99078.24
2023-05-02T12:01:16.449Z,99081.66
2023-05-02T12:06:20.500Z,99079.66
2023-05-02T12:11:24.260Z,99075.00
2023-05-02T12:16:27.601Z,99070.96
2023-05-02T12:21:33.786Z,99074.11
2023-05-02T12:26:37.022Z,99068.17
2023-05-02T12:31:40.738Z,99063.67
2023-05-02T12:36:45.603Z,99071.30
2023-05-02T12:41:54.263Z,99070.69
2023-05-02T12:47:01.592Z,99071.52
2023-05-02T12:52:05.276Z,99084.81
2023-05-02T12:57:08.894Z,99093.12
2023-05-02T13:02:12.972Z,99095.17
2023-05-02T13:07:16.143Z,99097.98
2023-05-02T13:12:19.340Z,99097.47
2023-05-02T13:17:22.813Z,99107.06
2023-05-02T13:22:26.708Z,99121.38
2023-05-02T13:27:29.919Z,99131.69
2023-05-02T13:32:33.127Z,99151.37
2023-05-02T13:37:36.350Z,99156.66
2023-05-02T13:42:39.346Z,99166.33
2023-05-02T13:47:42.407Z,99185.85
2023-05-02T13:52:47.726Z,99239.89
2023-05-02T13:57:52.013Z,99244.54
2023-05-02T14:02:55.774Z,99265.23
2023-05-02T14:07:58.899Z,99274.43
2023-05-02T14:13:02.068Z,99282.50
2023-05-02T14:18:05.147Z,99283.98
2023-05-02T14:23:08.550Z,99286.27
2023-05-02T14:28:12.136Z,99277.20
2023-05-02T14:33:15.505Z,99274.36
2023-05-02T14:38:18.509Z,99267.87
2023-05-02T14:43:21.683Z,99283.30
2023-05-02T14:48:25.004Z,99290.54
2023-05-02T14:53:28.175Z,99284.71
2023-05-02T14:58:31.195Z,99275.52
2023-05-02T15:03:36.378Z,99238.52
2023-05-02T15:08:45.040Z,99155.84
2023-05-02T15:13:48.047Z,99175.02
2023-05-02T15:18:51.123Z,99175.85
2023-05-02T15:23:54.166Z,99170.77
2023-05-02T15:28:57.756Z,99187.21
2023-05-02T15:34:00.789Z,99220.66
2023-05-02T15:39:07.332Z,99251.23
2023-05-02T15:44:11.076Z,99281.37
2023-05-02T15:49:14.363Z,99299.30
2023-05-02T15:54:17.435Z,99307.33
2023-05-02T15:59:21.041Z,99310.90
2023-05-02T16:04:25.366Z,99322.67
2023-05-02T16:09:31.374Z,99328.80
2023-05-02T16:14:34.940Z,99328.00
2023-05-02T16:19:38.088Z,99326.95
2023-05-02T16:24:41.437Z,99327.02
2023-05-02T16:29:44.397Z,99334.05
2023-05-02T16:34:47.356Z,99342.29
2023-05-02T16:39:50.599Z,99352.45
2023-05-02T16:44:53.712Z,99367.13
2023-05-02T16:49:58.544Z,99378.09
2023-05-02T16:55:01.623Z,99395.73
2023-05-02T17:00:05.684Z,99418.30
2023-05-02T17:05:10.802Z,99431.83
2023-05-02T17:10:13.778Z,99447.90
2023-05-02T17:15:16.862Z,99453.01
2023-05-02T17:20:20.670Z,99458.02
2023-05-02T17:25:28.168Z,99455.73
2023-05-02T17:30:34.105Z,99457.23
2023-05-02T17:35:37.184Z,99465.55
2023-05-02T17:40:40.500Z,99467.90
2023-05-02T17:45:45.082Z,99473.86
2023-05-02T17:50:50.157Z,99479.68
2023-05-02T17:55:53.289Z,99478.85
2023-05-02T18:00:57.014Z,99486.63
2023-05-02T18:05:59.945Z,99492.27
2023-05-02T18:11:03.627Z,99496.95
2023-05-02T18:16:06.866Z,99503.95
2023-05-02T18:21:10.546Z,99509.73
2023-05-02T18:26:14.192Z,99506.99
2023-05-02T18:31:17.965Z,99504.37
2023-05-02T18:36:26.186Z,99496.47
2023-05-02T18:41:29.400Z,99489.88
2023-05-02T18:46:32.446Z,99479.30
2023-05-02T18:51:35.843Z,99476.21
2023-05-02T18:56:38.825Z,99465.46
2023-05-02T19:01:41.808Z,99445.00
2023-05-02T19:06:45.306Z,99426.29
2023-05-02T19:11:48.410Z,99425.48
2023-05-02T19:16:51.578Z,99438.98
2023-05-02T19:21:54.530Z,99456.44
2023-05-02T19:26:57.948Z,99468.79
2023-05-02T19:32:01.146Z,99474.16
2023-05-02T19:37:04.447Z,99480.70
2023-05-02T19:42:07.628Z,99491.91
2023-05-02T19:47:11.174Z,99501.14
2023-05-02T19:52:14.137Z,99511.73
2023-05-02T19:57:18.020Z,99521.11
2023-05-02T20:02:21.975Z,99527.45
2023-05-02T20:07:24.993Z,99528.27
2023-05-02T20:12:27.971Z,99531.64
2023-05-02T20:25:34.415Z,99541.63
2023-05-02T20:30:39.232Z,99545.19
2023-05-02T20:35:42.285Z,99549.55
2023-05-02T20:40:45.791Z,99551.12
2023-05-02T20:45:49.134Z,99545.69
2023-05-02T20:50:55.188Z,99549.27
2023-05-02T20:55:58.209Z,99556.55
2023-05-02T21:01:01.278Z,99565.52
2023-05-02T21:06:04.505Z,99577.02
2023-05-02T21:11:14.674Z,99583.78
2023-05-02T21:16:19.131Z,99587.73
2023-05-02T21:21:22.962Z,99588.06
2023-05-02T21:26:26.370Z,99590.24
2023-05-02T21:31:30.193Z,99585.93
2023-05-02T21:36:33.256Z,99596.21
2023-05-02T21:41:36.820Z,99603.96
2023-05-02T21:46:41.074Z,99608.05
2023-05-02T21:51:44.234Z,99608.00
2023-05-02T21:56:47.248Z,99602.90
2023-05-02T22:01:50.586Z,99606.79
2023-05-02T22:06:53.969Z,99608.25
2023-05-02T22:11:58.069Z,99606.54
2023-05-02T22:17:04.881Z,99608.58
2023-05-02T22:22:08.150Z,99619.35
2023-05-02T22:27:11.151Z,99630.45
2023-05-02T22:32:14.169Z,99634.66
2023-05-02T22:37:17.320Z,99637.46
2023-05-02T22:42:20.882Z,99642.14
2023-05-02T22:47:23.943Z,99647.60
2023-05-02T22:52:30.120Z,99650.77
2023-05-02T22:57:33.163Z,99656.98
2023-05-02T23:02:36.923Z,99661.45
2023-05-02T23:07:40.317Z,99661.95
2023-05-02T23:12:43.528Z,99661.13
2023-05-02T23:17:46.600Z,99655.17
2023-05-02T23:25:30.442Z,99655.91
2023-05-02T23:30:33.814Z,99650.16
2023-05-02T23:35:37.137Z,99654.27
2023-05-02T23:40:40.123Z,99656.92
2023-05-02T23:45:43.247Z,99661.73
2023-05-02T23:50:46.400Z,99661.73
2023-05-02T23:55:49.479Z,99654.86
